Dilbeek, Belgium
Current Conditions -  °F | °C
As of 7:20 AM on Thursday 29 Jan 2015 (Local Time) from EBBR Reporting Station
Broken Clouds Broken Clouds  
Wind Chill: 25°   Ceiling: 1500
Heat Index: 36°   Visibility: 6mi
Dew Point: 32°   Wind: 18mph
Humidity: 87%   Direction: 230°SW
Pressure: 29.32"   Gusts: NA
Location:  50.85°N, 4.26°E
Report Text: EBBR 290620Z 23016KT 9999 SCT011 BKN015 02/M00 Q0993 TEMPO BKN010
Loading
Personal Weather Stations






























Interactive Weather Map New forecast layout! Learn more

10-Day Weather Forecast

Advertisements
Track Severe Weather on mobile